Time;durP1;ratioP1;P1;durP2;ratioP2;P2;SDS_P1;SDS_P2;PMS_P1;PMS_P2;Temp;Humidity;BMP_temperature;BMP_pressure;BME280_temperature;BME280_humidity;BME280_pressure;Samples;Min_cycle;Max_cycle;Signal;HPM_P1;HPM_P2
2022/02/06 00:01:27;;;;;;;19.05;11.52;;;;;;;-0.39;42.56;98588.84;3401980;29;20067;-71
2022/02/06 00:03:07;;;;;;;19.98;12.60;;;;;;;-0.41;42.59;98581.16;3402191;29;20499;-72
2022/02/06 00:04:49;;;;;;;21.65;13.18;;;;;;;-0.38;42.79;98585.28;3402530;29;20039;-71
2022/02/06 00:06:32;;;;;;;18.63;11.57;;;;;;;-0.43;42.90;98571.81;3402835;29;20079;-71
2022/02/06 00:08:13;;;;;;;19.02;12.48;;;;;;;-0.35;42.46;98574.50;3401234;29;20039;-71
2022/02/06 00:09:54;;;;;;;19.33;11.60;;;;;;;-0.34;42.67;98581.34;3401884;29;20570;-71
2022/02/06 00:11:35;;;;;;;22.13;13.13;;;;;;;-0.39;42.79;98557.44;3402228;29;20099;-71
2022/02/06 00:13:16;;;;;;;17.00;10.00;;;;;;;-0.38;42.74;98559.09;3402567;29;20032;-70
2022/02/06 00:14:57;;;;;;;20.47;11.73;;;;;;;-0.40;42.60;98561.03;3401553;29;20070;-71
2022/02/06 00:16:38;;;;;;;22.25;12.80;;;;;;;-0.42;42.68;98555.13;3402190;29;20032;-71
2022/02/06 00:18:18;;;;;;;20.08;11.57;;;;;;;-0.46;42.79;98550.19;3403584;29;20035;-72
2022/02/06 00:19:59;;;;;;;20.58;11.73;;;;;;;-0.46;42.52;98557.25;3402383;29;20521;-72
2022/02/06 00:21:40;;;;;;;18.77;11.75;;;;;;;-0.47;42.93;98559.00;3400617;29;20108;-71
2022/02/06 00:23:24;;;;;;;17.17;11.68;;;;;;;-0.45;42.44;98557.06;3400116;29;20122;-72
2022/02/06 00:25:18;;;;;;;18.77;11.45;;;;;;;-0.45;42.76;98551.03;3401760;29;20438;-71
2022/02/06 00:27:05;;;;;;;19.35;13.00;;;;;;;-0.45;42.87;98549.22;3401000;29;20176;-70
2022/02/06 00:29:13;;;;;;;21.60;12.07;;;;;;;-0.46;42.70;98555.44;3410509;28;20058;-71
2022/02/06 00:31:11;;;;;;;23.02;12.50;;;;;;;-0.48;42.32;98544.28;3400249;29;20066;-71
2022/02/06 00:33:00;;;;;;;17.35;12.40;;;;;;;-0.50;42.83;98542.81;3400958;29;20392;-71
2022/02/06 00:35:02;;;;;;;19.65;12.77;;;;;;;-0.50;42.37;98546.22;3399949;29;20122;-71
2022/02/06 00:40:09;;;;;;;25.48;13.75;;;;;;;-0.52;42.36;98527.25;3400144;29;20596;-71
2022/02/06 00:41:50;;;;;;;24.20;12.63;;;;;;;-0.48;42.56;98531.22;3401958;29;20047;-71
2022/02/06 00:43:31;;;;;;;18.92;11.73;;;;;;;-0.47;42.77;98517.13;3402075;29;20038;-71
2022/02/06 00:45:11;;;;;;;25.42;12.45;;;;;;;-0.45;42.71;98525.66;3401986;29;20044;-72
2022/02/06 00:46:52;;;;;;;22.50;12.73;;;;;;;-0.44;42.59;98521.25;3401883;29;20134;-71
2022/02/06 00:48:36;;;;;;;22.00;12.25;;;;;;;-0.43;42.76;98517.66;3401047;29;20551;-72
2022/02/06 00:50:17;;;;;;;19.52;11.75;;;;;;;-0.44;42.44;98523.84;3401931;29;20054;-72
2022/02/06 00:53:41;;;;;;;19.58;11.95;;;;;;;-0.43;42.40;98519.47;3400646;29;20047;-72
2022/02/06 00:55:24;;;;;;;21.55;12.68;;;;;;;-0.43;42.68;98516.84;3401551;29;20506;-72
2022/02/06 00:57:06;;;;;;;20.73;12.48;;;;;;;-0.41;42.47;98515.72;3401718;29;20131;-74
2022/02/06 00:58:46;;;;;;;20.85;13.07;;;;;;;-0.41;42.70;98510.50;3400895;29;20052;-71
2022/02/06 01:00:27;;;;;;;23.95;14.18;;;;;;;-0.38;42.46;98511.97;3401604;29;20036;-73
2022/02/06 01:02:08;;;;;;;20.67;12.25;;;;;;;-0.37;42.69;98508.38;3401739;29;20043;-73
2022/02/06 01:03:48;;;;;;;22.70;13.02;;;;;;;-0.38;42.31;98502.31;3401633;29;20043;-73
2022/02/06 01:05:29;;;;;;;18.40;10.80;;;;;;;-0.36;42.49;98499.53;3401615;29;20052;-72
2022/02/06 01:07:10;;;;;;;19.00;12.63;;;;;;;-0.36;42.70;98494.31;3400651;29;20188;-72
2022/02/06 01:08:51;;;;;;;17.50;12.43;;;;;;;-0.33;42.76;98492.22;3401496;29;20051;-71
2022/02/06 01:10:31;;;;;;;20.42;12.52;;;;;;;-0.33;42.64;98486.16;3401908;29;21385;-72
2022/02/06 01:12:17;;;;;;;18.98;12.05;;;;;;;-0.30;42.36;98483.22;3400705;29;20047;-71
2022/02/06 01:15:59;;;;;;;;;;;;;;;-0.19;42.40;98485.56;3401921;29;20103;-71
2022/02/06 01:17:50;;;;;;;21.40;12.30;;;;;;;-0.26;42.43;98467.06;3400660;29;19922;-71
2022/02/06 01:19:42;;;;;;;19.77;12.30;;;;;;;-0.27;42.06;98472.44;3401533;29;20118;-72
2022/02/06 01:23:42;;;;;;;;;;;;;;;-0.18;42.36;98471.53;3402089;29;20054;-70
2022/02/06 01:25:29;;;;;;;18.80;9.50;;;;;;;-0.23;42.12;98469.38;3401553;29;19921;-71
2022/02/06 01:27:15;;;;;;;20.67;12.00;;;;;;;-0.24;41.93;98467.72;3401525;29;20047;-72
2022/02/06 01:29:07;;;;;;;19.23;11.65;;;;;;;-0.32;42.24;98448.53;3401300;29;20039;-72
2022/02/06 01:31:03;;;;;;;21.05;10.45;;;;;;;-0.29;42.31;98463.91;3400255;29;20059;-71
2022/02/06 01:32:52;;;;;;;18.40;11.85;;;;;;;-0.35;42.30;98460.13;3399766;29;20483;-72
2022/02/06 01:34:47;;;;;;;17.20;11.45;;;;;;;-0.38;42.28;98452.59;3401243;29;20055;-72
2022/02/06 01:36:42;;;;;;;20.67;12.68;;;;;;;-0.34;42.35;98445.25;3401417;29;20411;-73
2022/02/06 01:38:28;;;;;;;18.63;11.90;;;;;;;-0.38;42.43;98442.13;3401201;29;20513;-72
2022/02/06 01:40:17;;;;;;;15.38;11.13;;;;;;;-0.34;42.20;98440.00;3400432;29;20059;-73
2022/02/06 01:42:00;;;;;;;20.20;10.93;;;;;;;-0.33;42.44;98446.91;3401379;29;20051;-73
2022/02/06 01:43:47;;;;;;;18.38;10.80;;;;;;;-0.31;42.62;98443.16;3401228;29;20043;-73
2022/02/06 01:45:37;;;;;;;22.15;11.38;;;;;;;-0.29;42.46;98442.97;3401258;29;20071;-73
2022/02/06 02:01:16;;;;;;;16.35;10.90;;;;;;;-0.29;42.27;98427.28;3399706;29;20146;-72
2022/02/06 02:08:52;;;;;;;18.00;11.43;;;;;;;-0.31;42.32;98423.97;3401357;29;20089;-73
2022/02/06 02:23:40;;;;;;;18.40;10.40;;;;;;;-0.37;42.53;98401.06;3400962;29;20426;-71
2022/02/06 02:43:29;;;;;;;17.63;10.82;;;;;;;-0.45;42.48;98392.19;3399898;29;20044;-73
2022/02/06 02:45:21;;;;;;;15.82;9.95;;;;;;;-0.50;42.71;98389.22;3400897;29;20185;-72
2022/02/06 02:47:14;;;;;;;14.48;9.85;;;;;;;-0.48;42.49;98381.22;3399569;29;20047;-73
2022/02/06 02:48:57;;;;;;;15.63;10.88;;;;;;;-0.46;42.76;98387.94;3401005;29;20135;-73
2022/02/06 02:50:42;;;;;;;15.98;10.38;;;;;;;-0.46;42.42;98384.50;3401001;29;20076;-72
2022/02/06 02:54:21;;;;;;;16.20;10.18;;;;;;;-0.42;42.58;98382.38;3400722;29;20376;-72
2022/02/06 02:57:55;;;;;;;17.98;11.65;;;;;;;-0.40;42.56;98383.06;3397721;29;20048;-73
2022/02/06 03:01:42;;;;;;;15.18;10.00;;;;;;;-0.39;42.44;98385.50;3400772;29;20109;-71
2022/02/06 03:03:38;;;;;;;17.45;11.02;;;;;;;-0.37;42.78;98387.97;3400984;29;20043;-73
2022/02/06 03:05:19;;;;;;;15.45;9.55;;;;;;;-0.36;42.64;98377.34;3400762;29;20051;-74
2022/02/06 03:07:00;;;;;;;15.93;10.45;;;;;;;-0.33;42.75;98373.59;3400750;29;20127;-72
2022/02/06 03:08:42;;;;;;;17.13;10.00;;;;;;;-0.32;42.40;98375.22;3399779;29;20447;-72
2022/02/06 03:10:23;;;;;;;14.63;9.82;;;;;;;-0.37;42.46;98373.09;3383996;29;20567;-74
2022/02/06 03:12:04;;;;;;;17.10;9.85;;;;;;;-0.37;42.73;98369.66;3394691;29;20050;-72
2022/02/06 03:13:53;;;;;;;15.75;10.30;;;;;;;-0.36;42.41;98369.50;3400828;29;20503;-73
2022/02/06 03:15:44;;;;;;;20.45;9.07;;;;;;;-0.36;42.88;98368.66;3401655;29;20043;-71
2022/02/06 03:17:44;;;;;;;14.63;10.13;;;;;;;-0.38;42.63;98365.41;3402870;29;20467;-73
2022/02/06 03:19:25;;;;;;;14.20;10.10;;;;;;;-0.42;42.49;98364.88;3401916;29;20242;-73
2022/02/06 03:21:10;;;;;;;17.38;9.40;;;;;;;-0.40;42.73;98367.34;3402708;29;20048;-73
2022/02/06 03:22:53;;;;;;;15.55;9.60;;;;;;;-0.40;42.73;98359.50;3402973;29;20040;-74
2022/02/06 03:24:41;;;;;;;18.33;10.60;;;;;;;-0.41;42.88;98355.22;3402897;29;20043;-72
2022/02/06 03:26:23;;;;;;;15.88;10.57;;;;;;;-0.43;42.41;98351.97;3403100;29;20039;-72
2022/02/06 03:28:04;;;;;;;19.00;11.35;;;;;;;-0.41;42.61;98355.22;3402983;29;20542;-72
2022/02/06 03:29:44;;;;;;;15.00;9.70;;;;;;;-0.42;42.88;98351.78;3402844;29;20048;-72
2022/02/06 03:31:25;;;;;;;18.90;11.18;;;;;;;-0.43;42.68;98357.19;3402639;29;20078;-74
2022/02/06 03:33:06;;;;;;;16.30;10.00;;;;;;;-0.45;42.80;98352.13;3401932;29;20043;-72
2022/02/06 03:34:46;;;;;;;16.45;9.32;;;;;;;-0.46;42.72;98348.69;3402619;29;20910;-72
2022/02/06 03:36:27;;;;;;;15.73;11.27;;;;;;;-0.46;42.51;98342.63;3402891;29;20054;-71
2022/02/06 03:38:08;;;;;;;16.45;10.52;;;;;;;-0.48;42.80;98344.59;3402933;29;20044;-71
2022/02/06 03:39:52;;;;;;;15.65;10.52;;;;;;;-0.48;42.98;98345.41;3402959;29;20047;-72
2022/02/06 03:41:48;;;;;;;16.67;9.30;;;;;;;-0.49;42.88;98343.78;3401801;29;20040;-71
2022/02/06 03:43:47;;;;;;;16.85;9.75;;;;;;;-0.49;42.71;98349.00;3402765;29;20047;-72
2022/02/06 03:45:37;;;;;;;18.02;9.70;;;;;;;-0.47;42.74;98343.59;3402718;29;20130;-72
2022/02/06 03:47:21;;;;;;;14.93;9.15;;;;;;;-0.50;42.53;98347.34;3401504;29;20052;-73
2022/02/06 03:49:07;;;;;;;15.05;9.27;;;;;;;-0.52;42.79;98344.06;3402837;29;20439;-71
2022/02/06 03:50:51;;;;;;;16.17;10.02;;;;;;;-0.54;42.84;98343.41;3401936;29;20058;-72
2022/02/06 03:52:41;;;;;;;18.25;9.90;;;;;;;-0.53;42.62;98345.03;3401986;29;20044;-73
2022/02/06 03:54:23;;;;;;;19.23;10.13;;;;;;;-0.53;43.11;98349.47;3400319;29;20138;-75
2022/02/06 03:56:05;;;;;;;16.83;9.93;;;;;;;-0.56;43.15;98342.75;3402580;29;20040;-74
2022/02/06 03:57:52;;;;;;;14.95;10.13;;;;;;;-0.59;42.79;98337.03;3402755;29;20051;-72
2022/02/06 03:59:35;;;;;;;14.77;8.82;;;;;;;-0.61;43.14;98338.97;3402939;29;20089;-72
2022/02/06 04:01:16;;;;;;;16.67;9.70;;;;;;;-0.64;43.22;98340.09;3402525;29;20471;-72
2022/02/06 04:02:57;;;;;;;16.55;10.00;;;;;;;-0.66;43.19;98342.88;3402314;29;20052;-74
2022/02/06 04:04:37;;;;;;;19.15;9.95;;;;;;;-0.68;43.25;98344.81;3402455;29;20581;-71
2022/02/06 04:06:18;;;;;;;19.25;10.60;;;;;;;-0.68;42.90;98338.75;3401401;29;20188;-72
2022/02/06 04:07:59;;;;;;;18.23;11.00;;;;;;;-0.71;43.38;98341.69;3397940;29;20056;-73
2022/02/06 04:09:51;;;;;;;17.95;10.93;;;;;;;-0.72;43.17;98340.88;3402751;29;20062;-73
2022/02/06 04:11:46;;;;;;;13.07;8.63;;;;;;;-0.73;43.48;98341.03;3401602;29;20543;-73
2022/02/06 04:13:27;;;;;;;14.75;8.70;;;;;;;-0.73;43.43;98330.56;3400216;29;20138;-74
2022/02/06 04:15:37;;;;;;;17.00;10.05;;;;;;;-0.72;43.33;98334.84;3389815;29;20566;-72
2022/02/06 04:17:23;;;;;;;14.32;9.23;;;;;;;-0.66;42.79;98342.06;3389274;29;20080;-72
2022/02/06 04:19:16;;;;;;;16.52;10.18;;;;;;;-0.60;43.38;98341.41;3389627;29;20040;-73
2022/02/06 04:20:57;;;;;;;14.70;9.38;;;;;;;-0.58;43.15;98349.13;3389380;29;20040;-73
2022/02/06 04:22:38;;;;;;;18.50;9.30;;;;;;;-0.59;43.29;98348.31;3389406;29;20116;-73
2022/02/06 04:24:19;;;;;;;18.30;10.65;;;;;;;-0.59;43.12;98348.31;3388337;29;20040;-72
2022/02/06 04:26:00;;;;;;;17.33;9.87;;;;;;;-0.58;43.23;98349.94;3391164;29;20468;-73
2022/02/06 04:27:41;;;;;;;15.50;9.93;;;;;;;-0.58;43.31;98349.94;3401560;29;20067;-74
2022/02/06 04:29:22;;;;;;;17.77;10.25;;;;;;;-0.56;43.17;98349.78;3394734;29;20043;-71
2022/02/06 04:31:05;;;;;;;19.17;10.88;;;;;;;-0.56;43.12;98348.00;3399566;29;20438;-74
2022/02/06 04:32:46;;;;;;;15.80;10.13;;;;;;;-0.56;42.95;98347.16;3393014;29;20048;-71
2022/02/06 04:34:28;;;;;;;17.10;10.80;;;;;;;-0.55;43.34;98343.56;3400417;29;20503;-72
2022/02/06 04:36:12;;;;;;;19.20;11.55;;;;;;;-0.61;42.98;98336.34;3401767;29;20036;-71
2022/02/06 05:14:35;;;;;;;19.75;11.50;;;;;;;-0.54;43.31;98324.25;3401890;29;20044;-74
2022/02/06 05:25:59;;;;;;;20.40;12.00;;;;;;;-0.57;43.34;98335.03;3400311;29;20046;-73
2022/02/06 05:28:10;;;;;;;19.63;12.50;;;;;;;-0.57;43.23;98335.03;3397739;29;20043;-74
2022/02/06 05:33:21;;;;;;;20.30;11.90;;;;;;;-0.58;43.46;98347.31;3388840;29;20543;-72
2022/02/06 05:35:06;;;;;;;26.73;12.40;;;;;;;-0.68;43.55;98336.16;3388674;29;20047;-72
2022/02/06 05:36:51;;;;;;;20.15;11.00;;;;;;;-0.67;43.54;98340.44;3388592;29;20044;-75
2022/02/06 05:38:35;;;;;;;23.27;12.80;;;;;;;-0.71;43.47;98344.31;3388490;29;20055;-72
2022/02/06 05:40:19;;;;;;;20.33;11.73;;;;;;;-0.75;43.73;98343.81;3388583;29;20138;-72
2022/02/06 05:42:00;;;;;;;20.20;11.95;;;;;;;-0.77;43.47;98350.19;3388328;29;20428;-71
2022/02/06 05:43:41;;;;;;;20.15;12.93;;;;;;;-0.78;43.43;98344.09;3390026;29;20063;-71
2022/02/06 05:45:22;;;;;;;23.13;12.48;;;;;;;-0.76;43.70;98343.97;3391280;29;20166;-71
2022/02/06 05:47:04;;;;;;;19.90;12.35;;;;;;;-0.76;43.39;98336.13;3397197;29;20055;-71
2022/02/06 05:48:44;;;;;;;22.02;12.48;;;;;;;-0.74;43.28;98334.16;3399869;29;20436;-71
2022/02/06 05:50:25;;;;;;;20.83;12.82;;;;;;;-0.74;43.61;98339.41;3401441;29;20469;-73
2022/02/06 05:52:07;;;;;;;24.83;12.77;;;;;;;-0.82;43.52;98326.28;3401531;29;20043;-72
2022/02/06 05:53:48;;;;;;;22.65;12.23;;;;;;;-0.76;43.42;98336.13;3400417;29;20047;-73
2022/02/06 05:55:29;;;;;;;24.13;13.45;;;;;;;-0.78;43.39;98323.19;3401307;29;20103;-74
2022/02/06 05:57:09;;;;;;;22.05;12.75;;;;;;;-0.76;43.60;98330.88;3401184;29;20048;-74
2022/02/06 05:58:50;;;;;;;20.55;10.93;;;;;;;-0.69;43.24;98334.53;3401384;29;20051;-74
2022/02/06 06:00:31;;;;;;;20.35;11.88;;;;;;;-0.68;43.41;98330.91;3399981;29;20075;-72
2022/02/06 06:02:12;;;;;;;25.30;14.20;;;;;;;-0.67;43.59;98335.19;3401096;29;20099;-74
2022/02/06 06:03:54;;;;;;;23.83;13.73;;;;;;;-0.73;43.62;98315.69;3395029;29;20043;-73
2022/02/06 06:05:35;;;;;;;22.88;13.00;;;;;;;-0.63;43.25;98326.03;3394299;29;20513;-75
2022/02/06 06:07:18;;;;;;;22.98;12.38;;;;;;;-0.57;43.34;98335.84;3392013;29;20525;-75
2022/02/06 06:08:58;;;;;;;23.40;12.13;;;;;;;-0.52;43.11;98344.06;3391994;29;20043;-74
2022/02/06 06:10:42;;;;;;;21.30;12.43;;;;;;;-0.50;43.52;98341.31;3386901;29;21169;-73
2022/02/06 06:12:22;;;;;;;24.23;13.25;;;;;;;-0.48;43.04;98339.34;3391586;29;20067;-74
2022/02/06 06:14:03;;;;;;;20.48;12.88;;;;;;;-0.45;43.31;98331.19;3389463;29;20044;-73
2022/02/06 06:15:45;;;;;;;21.80;13.25;;;;;;;-0.41;43.37;98339.53;3390041;29;20484;-75
2022/02/06 06:17:26;;;;;;;23.55;12.48;;;;;;;-0.34;42.99;98332.69;3395338;29;20388;-74
2022/02/06 06:19:07;;;;;;;22.00;12.68;;;;;;;-0.30;43.14;98339.25;3387634;29;20407;-75
2022/02/06 06:20:53;;;;;;;24.98;13.32;;;;;;;-0.28;42.91;98337.31;3395528;29;20048;-76
2022/02/06 06:22:34;;;;;;;21.58;12.43;;;;;;;-0.30;43.21;98328.78;3387344;29;20044;-73
2022/02/06 06:24:18;;;;;;;23.30;13.50;;;;;;;-0.26;43.17;98332.72;3389369;29;20044;-75
2022/02/06 06:25:59;;;;;;;24.33;14.43;;;;;;;-0.28;43.25;98340.72;3390538;29;20046;-74
2022/02/06 06:27:40;;;;;;;21.55;13.30;;;;;;;-0.26;43.05;98341.41;3388775;29;20043;-75
2022/02/06 06:29:21;;;;;;;27.80;14.52;;;;;;;-0.24;43.26;98330.75;3388445;29;20041;-74
2022/02/06 06:31:02;;;;;;;28.10;12.85;;;;;;;-0.25;42.76;98342.22;3390373;29;20039;-73
2022/02/06 06:32:44;;;;;;;22.05;14.23;;;;;;;-0.25;43.26;98336.97;3390519;29;20040;-73
2022/02/06 06:34:25;;;;;;;23.23;13.70;;;;;;;-0.23;42.96;98337.66;3390030;29;20040;-75
2022/02/06 06:36:06;;;;;;;26.77;14.73;;;;;;;-0.41;43.07;98313.34;3393967;29;20050;-72
2022/02/06 06:37:49;;;;;;;22.38;13.57;;;;;;;-0.19;43.28;98333.72;3394170;29;20463;-76
2022/02/06 06:41:20;;;;;;;26.42;13.85;;;;;;;-0.14;43.14;98334.06;3387454;29;20068;-76
2022/02/06 06:43:02;;;;;;;27.20;15.87;;;;;;;-0.06;43.05;98334.06;3392064;29;20048;-75
2022/02/06 06:44:44;;;;;;;26.27;14.25;;;;;;;-0.01;43.06;98341.44;3388646;29;20320;-74
2022/02/06 06:46:24;;;;;;;24.38;13.50;;;;;;;0.03;42.95;98337.53;3392307;29;20197;-73
2022/02/06 06:48:05;;;;;;;23.33;14.48;;;;;;;0.08;42.75;98345.75;3385588;29;20365;-73
2022/02/06 06:49:46;;;;;;;24.77;14.15;;;;;;;0.14;42.68;98334.59;3386236;29;20661;-73
2022/02/06 06:51:27;;;;;;;21.80;12.38;;;;;;;0.18;42.49;98337.72;3388995;29;20047;-74
2022/02/06 06:53:10;;;;;;;29.27;15.60;;;;;;;0.30;42.95;98343.47;3391617;29;20046;-74
2022/02/06 06:54:59;;;;;;;30.27;14.88;;;;;;;0.35;42.58;98341.19;3397218;29;20039;-73
2022/02/06 06:56:49;;;;;;;25.17;13.63;;;;;;;0.37;42.68;98345.28;3392615;29;20088;-73
2022/02/06 06:58:39;;;;;;;28.67;14.60;;;;;;;0.27;42.40;98318.41;3391257;29;20044;-73
2022/02/06 07:00:44;;;;;;;23.60;14.32;;;;;;;0.46;42.58;98345.28;3395228;29;20529;-73
2022/02/06 07:04:05;;;;;;;24.15;13.52;;;;;;;0.53;42.39;98351.50;3397844;29;20036;-73
2022/02/06 07:05:46;;;;;;;30.83;15.52;;;;;;;0.54;42.49;98346.13;3395068;28;20040;-72
2022/02/06 07:07:28;;;;;;;24.50;14.30;;;;;;;0.49;42.36;98343.16;3394414;29;20043;-71
2022/02/06 07:09:09;;;;;;;26.70;13.68;;;;;;;0.59;42.23;98353.47;3394336;29;20086;-72
2022/02/06 07:10:52;;;;;;;31.48;15.25;;;;;;;0.59;42.13;98349.03;3390343;29;20142;-73
2022/02/06 07:12:35;;;;;;;26.30;13.65;;;;;;;0.57;42.36;98342.34;3391507;29;20044;-74
2022/02/06 07:14:16;;;;;;;26.33;14.50;;;;;;;0.56;42.24;98341.50;3391254;29;20080;-72
2022/02/06 07:15:59;;;;;;;28.30;14.63;;;;;;;0.55;42.26;98344.31;3396004;29;20467;-75
2022/02/06 07:17:45;;;;;;;23.90;14.52;;;;;;;0.54;42.03;98340.03;3383899;29;20165;-74
2022/02/06 07:19:26;;;;;;;22.50;13.52;;;;;;;0.48;42.24;98332.84;3396082;29;20047;-73
2022/02/06 07:21:07;;;;;;;24.48;14.32;;;;;;;0.41;42.53;98338.75;3398594;29;20064;-73
2022/02/06 07:22:48;;;;;;;23.70;13.73;;;;;;;0.37;42.56;98341.84;3398335;29;20083;-73
2022/02/06 07:24:29;;;;;;;21.40;13.18;;;;;;;0.36;42.45;98343.66;3392300;28;20222;-74
2022/02/06 07:26:17;;;;;;;25.88;14.63;;;;;;;0.31;42.70;98345.94;3391733;29;20119;-73
2022/02/06 07:27:57;;;;;;;25.40;14.82;;;;;;;0.28;42.80;98338.38;3400953;29;20507;-73
2022/02/06 07:29:38;;;;;;;24.77;13.90;;;;;;;0.24;42.93;98344.94;3402525;29;20122;-72
2022/02/06 07:31:19;;;;;;;23.30;13.68;;;;;;;0.16;43.02;98331.84;3397002;29;20050;-74
2022/02/06 07:33:00;;;;;;;26.75;15.23;;;;;;;0.21;42.97;98340.03;3400712;29;20066;-72
2022/02/06 07:34:41;;;;;;;23.65;14.20;;;;;;;0.21;42.77;98340.84;3400968;29;20114;-72
2022/02/06 07:36:21;;;;;;;27.27;14.35;;;;;;;0.25;42.73;98345.75;3400674;29;20044;-74
2022/02/06 07:38:02;;;;;;;27.92;14.80;;;;;;;0.21;42.90;98332.19;3399189;29;20050;-71
2022/02/06 07:39:44;;;;;;;26.52;12.85;;;;;;;0.29;42.83;98337.41;3401269;29;20163;-73
2022/02/06 07:41:25;;;;;;;23.45;14.07;;;;;;;0.33;43.05;98351.00;3401935;29;20071;-74
2022/02/06 07:43:05;;;;;;;24.80;13.63;;;;;;;0.32;42.62;98334.47;3399005;29;20586;-73
2022/02/06 07:44:51;;;;;;;22.83;14.63;;;;;;;0.36;42.78;98342.81;3390246;29;20043;-73
2022/02/06 07:46:41;;;;;;;21.60;14.32;;;;;;;0.29;42.68;98332.19;3394173;29;20044;-73
2022/02/06 07:48:22;;;;;;;27.13;15.13;;;;;;;0.33;42.99;98341.34;3399392;29;20064;-74
2022/02/06 07:50:04;;;;;;;24.75;12.77;;;;;;;0.30;43.12;98333.00;3400951;29;20106;-72
2022/02/06 07:51:44;;;;;;;17.60;12.52;;;;;;;0.35;42.77;98339.38;3401084;29;20221;-73
2022/02/06 07:53:25;;;;;;;26.45;15.70;;;;;;;0.45;42.92;98346.28;3401068;29;20096;-73
2022/02/06 07:55:07;;;;;;;23.23;13.90;;;;;;;0.56;42.99;98338.06;3388759;29;20040;-73
2022/02/06 07:56:48;;;;;;;22.33;12.50;;;;;;;0.68;43.37;98346.44;3399674;29;20036;-73
2022/02/06 07:58:28;;;;;;;21.25;13.38;;;;;;;0.72;43.84;98348.53;3402062;29;20488;-71
2022/02/06 08:00:10;;;;;;;29.00;13.95;;;;;;;0.74;43.60;98341.34;3400618;29;20526;-72
2022/02/06 08:01:54;;;;;;;20.85;12.55;;;;;;;0.73;43.64;98339.72;3398966;29;20075;-72
2022/02/06 08:03:35;;;;;;;26.30;16.15;;;;;;;0.73;43.57;98344.97;3400905;29;20032;-72
2022/02/06 08:05:17;;;;;;;21.92;13.45;;;;;;;0.68;43.44;98352.50;3398037;29;20038;-72
2022/02/06 08:06:58;;;;;;;27.27;14.82;;;;;;;0.69;43.17;98353.31;3385938;29;20036;-72
2022/02/06 08:08:39;;;;;;;26.38;14.13;;;;;;;0.66;43.21;98359.69;3398300;29;20038;-72
2022/02/06 08:10:21;;;;;;;25.38;14.15;;;;;;;0.62;43.07;98348.75;3397976;29;20054;-72
2022/02/06 08:12:04;;;;;;;24.25;13.27;;;;;;;0.53;42.90;98333.16;3399567;28;20032;-75
2022/02/06 08:13:51;;;;;;;22.00;13.20;;;;;;;0.60;42.94;98345.47;3398622;29;20123;-72
2022/02/06 08:15:32;;;;;;;24.25;14.40;;;;;;;0.64;43.20;98359.03;3400619;29;20055;-71
2022/02/06 08:17:13;;;;;;;29.33;15.40;;;;;;;0.64;42.80;98357.22;3398483;29;20091;-73
2022/02/06 08:18:54;;;;;;;22.58;13.43;;;;;;;0.64;43.20;98356.41;3397803;29;20138;-73
2022/02/06 08:20:38;;;;;;;23.60;15.38;;;;;;;0.71;42.78;98361.84;3398614;29;20054;-72
2022/02/06 08:22:21;;;;;;;24.52;14.30;;;;;;;0.74;42.66;98356.25;3399621;29;20063;-72
2022/02/06 08:24:02;;;;;;;27.65;15.55;;;;;;;0.77;42.88;98355.94;3400002;29;20051;-71
2022/02/06 08:25:43;;;;;;;24.95;15.05;;;;;;;0.79;42.83;98354.78;3390748;29;20356;-73
2022/02/06 08:27:26;;;;;;;25.93;14.43;;;;;;;0.81;42.56;98350.19;3397485;29;20047;-74
2022/02/06 08:29:08;;;;;;;24.33;14.50;;;;;;;0.75;42.77;98332.50;3396168;29;20481;-73
2022/02/06 08:30:49;;;;;;;23.90;13.45;;;;;;;0.69;42.90;98330.53;3398461;29;20051;-71
2022/02/06 08:32:32;;;;;;;22.98;13.77;;;;;;;0.81;42.78;98355.44;3400641;29;20042;-73
2022/02/06 08:34:14;;;;;;;25.90;13.70;;;;;;;0.76;42.57;98339.38;3399831;29;20106;-71
2022/02/06 08:35:55;;;;;;;27.45;14.82;;;;;;;0.77;42.62;98346.25;3401267;29;20043;-74
2022/02/06 08:37:36;;;;;;;23.55;13.32;;;;;;;0.82;42.85;98351.81;3398224;29;20128;-72
2022/02/06 08:39:17;;;;;;;23.43;13.63;;;;;;;0.82;42.74;98335.28;3401600;29;20044;-73
2022/02/06 08:40:57;;;;;;;26.67;14.30;;;;;;;0.86;42.99;98329.53;3400606;29;20315;-72
2022/02/06 08:42:40;;;;;;;26.05;13.35;;;;;;;0.91;42.92;98342.16;3401491;29;20388;-73
2022/02/06 08:44:20;;;;;;;;;;;;;;;1.02;42.93;98341.78;3397173;29;20043;-72
2022/02/06 08:46:02;;;;;;;21.73;12.70;;;;;;;0.95;42.53;98337.38;3396086;29;19978;-73
2022/02/06 08:47:44;;;;;;;21.00;13.27;;;;;;;0.90;42.68;98323.94;3397636;29;20043;-71
2022/02/06 08:49:24;;;;;;;25.30;13.70;;;;;;;0.94;42.39;98335.75;3398068;29;20044;-75
2022/02/06 08:51:06;;;;;;;22.05;13.68;;;;;;;1.00;42.50;98340.31;3397890;29;20553;-74
2022/02/06 08:52:47;;;;;;;22.70;14.30;;;;;;;1.06;42.34;98345.75;3396089;29;20074;-72
2022/02/06 08:54:31;;;;;;;29.90;14.07;;;;;;;1.12;42.50;98339.00;3398746;29;20439;-73
2022/02/06 08:56:11;;;;;;;24.38;13.32;;;;;;;1.18;42.28;98351.44;3398491;29;20054;-73
2022/02/06 08:57:52;;;;;;;29.05;16.58;;;;;;;1.21;42.37;98343.22;3400816;29;20214;-75
2022/02/06 08:59:33;;;;;;;20.25;13.30;;;;;;;1.29;42.14;98351.09;3402268;29;20087;-75
2022/02/06 09:01:14;;;;;;;23.60;14.23;;;;;;;1.35;42.50;98344.34;3401153;29;20043;-73
2022/02/06 09:02:54;;;;;;;24.30;14.63;;;;;;;1.41;42.58;98329.72;3398254;29;20097;-73
2022/02/06 09:04:35;;;;;;;26.25;13.98;;;;;;;1.51;42.17;98339.03;3397005;29;20055;-76
2022/02/06 09:06:16;;;;;;;27.10;14.85;;;;;;;1.55;42.27;98333.44;3399152;29;20090;-74
2022/02/06 09:07:57;;;;;;;27.67;14.80;;;;;;;1.62;42.36;98345.72;3397911;29;20546;-72
2022/02/06 09:09:43;;;;;;;24.42;14.25;;;;;;;1.69;42.16;98348.50;3399749;29;20127;-74
2022/02/06 09:11:25;;;;;;;26.80;15.60;;;;;;;1.69;42.39;98341.44;3398644;29;20039;-75
2022/02/06 09:13:07;;;;;;;29.80;15.75;;;;;;;1.82;42.27;98351.38;3400662;29;20043;-72
2022/02/06 09:14:48;;;;;;;37.65;15.52;;;;;;;1.93;41.86;98355.44;3400914;29;20035;-73
2022/02/06 09:16:29;;;;;;;24.70;14.38;;;;;;;2.00;41.81;98345.88;3397911;29;20055;-72
2022/02/06 09:18:11;;;;;;;24.60;15.05;;;;;;;2.03;41.56;98332.38;3401636;29;20035;-72
2022/02/06 09:19:53;;;;;;;22.60;15.25;;;;;;;2.18;41.64;98342.97;3413031;28;20043;-72
2022/02/06 09:21:33;;;;;;;28.42;14.10;;;;;;;2.25;41.73;98336.03;3402393;28;20044;-73
2022/02/06 09:23:14;;;;;;;28.33;15.70;;;;;;;2.28;41.60;98334.88;3399698;29;20582;-73
2022/02/06 09:24:55;;;;;;;26.63;16.38;;;;;;;2.32;41.76;98331.72;3384911;29;20563;-73
2022/02/06 09:26:37;;;;;;;27.23;16.13;;;;;;;2.44;41.60;98337.38;3394080;28;20067;-72
2022/02/06 09:28:18;;;;;;;26.15;15.43;;;;;;;2.47;41.35;98334.38;3384719;29;20131;-73
2022/02/06 09:29:59;;;;;;;27.25;15.07;;;;;;;2.47;41.52;98331.75;3397000;29;20491;-74
2022/02/06 09:31:40;;;;;;;28.23;16.17;;;;;;;2.47;41.47;98338.84;3400156;29;20471;-72
2022/02/06 09:36:44;;;;;;;26.98;16.27;;;;;;;2.43;41.50;98327.84;3396043;29;20044;-72
2022/02/06 09:38:25;;;;;;;22.95;14.68;;;;;;;2.40;41.50;98323.78;3397161;29;20049;-71
2022/02/06 09:40:13;;;;;;;30.15;16.63;;;;;;;2.36;41.65;98321.66;3398992;29;20046;-72
2022/02/06 09:41:55;;;;;;;24.23;15.57;;;;;;;2.31;41.63;98324.81;3400992;29;20123;-72
2022/02/06 09:43:37;;;;;;;27.27;16.23;;;;;;;2.25;41.86;98324.72;3401429;29;20047;-71
2022/02/06 09:45:18;;;;;;;25.73;15.35;;;;;;;2.22;41.74;98335.56;3400387;28;20040;-71
2022/02/06 09:46:59;;;;;;;27.02;14.93;;;;;;;2.18;41.60;98349.03;3398192;28;20056;-74
2022/02/06 09:48:41;;;;;;;30.25;15.80;;;;;;;2.13;41.74;98343.50;3398895;29;20050;-74
2022/02/06 09:50:22;;;;;;;28.38;16.90;;;;;;;2.03;41.79;98337.63;3398686;29;20039;-75
2022/02/06 09:52:03;;;;;;;26.08;15.20;;;;;;;2.03;41.61;98345.53;3400785;29;20491;-72
2022/02/06 09:53:44;;;;;;;26.38;15.43;;;;;;;1.98;41.76;98347.84;3400065;29;20044;-72
2022/02/06 09:55:24;;;;;;;28.15;16.48;;;;;;;1.96;42.06;98339.31;3399488;29;20055;-73
2022/02/06 09:57:11;;;;;;;30.38;15.30;;;;;;;1.95;42.01;98340.31;3401078;29;20411;-72
2022/02/06 09:59:03;;;;;;;28.70;16.63;;;;;;;1.91;42.12;98333.75;3399942;29;20040;-72
2022/02/06 10:00:44;;;;;;;30.58;15.23;;;;;;;1.89;41.84;98343.66;3398095;29;20626;-72
2022/02/06 10:02:27;;;;;;;28.27;16.27;;;;;;;1.84;41.80;98344.16;3398460;29;20082;-73